createdAt,value
2018-11-14T00:03:30.636Z,10.92
2018-11-14T00:07:34.129Z,10.92
2018-11-14T00:11:37.661Z,10.90
2018-11-14T00:15:41.142Z,10.90
2018-11-14T00:19:44.595Z,10.89
2018-11-14T00:23:48.318Z,10.87
2018-11-14T00:27:51.825Z,10.86
2018-11-14T00:31:55.246Z,10.84
2018-11-14T00:35:59.022Z,10.83
2018-11-14T00:40:02.506Z,10.81
2018-11-14T00:44:06.072Z,10.81
2018-11-14T00:48:15.935Z,10.78
2018-11-14T00:52:19.416Z,10.76
2018-11-14T00:56:22.895Z,10.73
2018-11-14T01:00:26.610Z,10.72
2018-11-14T01:04:30.117Z,10.70
2018-11-14T01:08:33.627Z,10.67
2018-11-14T01:12:37.095Z,10.64
2018-11-14T01:16:40.588Z,10.61
2018-11-14T01:20:44.073Z,10.56
2018-11-14T01:24:47.551Z,10.56
2018-11-14T01:28:51.019Z,10.52
2018-11-14T01:32:55.033Z,10.47
2018-11-14T01:36:58.557Z,10.43
2018-11-14T01:41:02.130Z,10.43
2018-11-14T01:45:08.258Z,10.42
2018-11-14T01:49:11.805Z,10.45
2018-11-14T01:53:15.448Z,10.46
2018-11-14T01:57:18.904Z,10.46
2018-11-14T02:01:22.409Z,10.46
2018-11-14T02:05:25.914Z,10.48
2018-11-14T02:09:29.486Z,10.51
2018-11-14T02:13:32.930Z,10.49
2018-11-14T02:17:36.728Z,10.45
2018-11-14T02:21:40.207Z,10.43
2018-11-14T02:25:43.754Z,10.44
2018-11-14T02:29:47.260Z,10.41
2018-11-14T02:33:50.734Z,10.40
2018-11-14T02:37:54.212Z,10.39
2018-11-14T02:41:57.671Z,10.34
2018-11-14T02:46:01.233Z,10.33
2018-11-14T02:50:04.987Z,10.31
2018-11-14T02:54:08.483Z,10.29
2018-11-14T02:58:11.979Z,10.25
2018-11-14T03:02:15.471Z,10.21
2018-11-14T03:06:18.922Z,10.19
2018-11-14T03:10:22.578Z,10.16
2018-11-14T03:14:26.091Z,10.15
2018-11-14T03:18:29.605Z,10.14
2018-11-14T03:22:33.083Z,10.11
2018-11-14T03:26:36.766Z,10.09
2018-11-14T03:30:40.202Z,10.07
2018-11-14T03:34:43.691Z,10.05
2018-11-14T03:38:47.452Z,10.01
2018-11-14T03:42:50.926Z,9.99
2018-11-14T03:46:54.413Z,9.96
2018-11-14T03:50:57.912Z,9.94
2018-11-14T03:55:01.735Z,9.89
2018-11-14T03:59:05.335Z,9.89
2018-11-14T04:03:09.061Z,9.87
2018-11-14T04:07:12.676Z,9.82
2018-11-14T04:11:16.427Z,9.82
2018-11-14T04:15:19.908Z,9.84
2018-11-14T04:19:23.397Z,9.82
2018-11-14T04:23:26.914Z,9.79
2018-11-14T04:27:30.371Z,9.77
2018-11-14T04:31:33.865Z,9.76
2018-11-14T04:35:37.350Z,9.79
2018-11-14T04:39:40.869Z,9.82
2018-11-14T04:43:44.392Z,9.85
2018-11-14T04:47:47.930Z,9.84
2018-11-14T04:51:51.386Z,9.82
2018-11-14T04:55:55.115Z,9.80
2018-11-14T04:59:58.580Z,9.74
2018-11-14T05:04:02.051Z,9.71
2018-11-14T05:08:06.216Z,9.67
2018-11-14T05:12:09.698Z,9.62
2018-11-14T05:16:13.146Z,9.57
2018-11-14T05:20:17.787Z,9.54
2018-11-14T05:24:21.328Z,9.50
2018-11-14T05:28:24.775Z,9.44
2018-11-14T05:32:28.265Z,9.38
2018-11-14T05:36:31.758Z,9.39
2018-11-14T05:40:35.235Z,9.40
2018-11-14T05:44:38.753Z,9.39
2018-11-14T05:48:42.274Z,9.37
2018-11-14T05:52:45.688Z,9.32
2018-11-14T05:56:49.147Z,9.27
2018-11-14T06:00:52.644Z,9.24
2018-11-14T06:04:56.078Z,9.22
2018-11-14T06:08:59.588Z,9.23
2018-11-14T06:13:03.058Z,9.24
2018-11-14T06:17:06.561Z,9.25
2018-11-14T06:21:10.033Z,9.25
2018-11-14T06:25:33.317Z,9.23
2018-11-14T06:29:36.800Z,9.23
2018-11-14T06:33:40.331Z,9.23
2018-11-14T06:37:43.764Z,9.23
2018-11-14T06:41:47.304Z,9.23
2018-11-14T06:45:50.724Z,9.23
2018-11-14T06:49:54.272Z,9.22
2018-11-14T06:53:58.222Z,9.23
2018-11-14T06:58:01.702Z,9.20
2018-11-14T07:02:05.213Z,9.18
2018-11-14T07:06:08.490Z,9.13
2018-11-14T07:10:13.886Z,9.12
2018-11-14T07:14:17.349Z,9.14
2018-11-14T07:18:20.828Z,9.16
2018-11-14T07:22:24.309Z,9.16
2018-11-14T07:26:27.779Z,9.19
2018-11-14T07:30:31.745Z,9.24
2018-11-14T07:34:35.259Z,9.29
2018-11-14T07:38:46.646Z,9.36
2018-11-14T07:42:50.127Z,9.43
2018-11-14T07:46:53.590Z,9.50
2018-11-14T07:50:57.118Z,9.57
2018-11-14T07:55:00.601Z,9.69
2018-11-14T07:59:04.094Z,9.76
2018-11-14T08:03:07.608Z,9.87
2018-11-14T08:07:11.119Z,9.96
2018-11-14T08:11:14.599Z,10.02
2018-11-14T08:15:18.131Z,10.10
2018-11-14T08:19:21.623Z,10.16
2018-11-14T08:23:25.089Z,10.24
2018-11-14T08:27:28.596Z,10.31
2018-11-14T08:31:32.025Z,10.41
2018-11-14T08:35:35.497Z,10.45
2018-11-14T08:39:39.028Z,10.53
2018-11-14T08:43:42.469Z,10.61
2018-11-14T08:47:45.942Z,10.67
2018-11-14T08:51:49.404Z,10.75
2018-11-14T08:55:52.908Z,10.80
2018-11-14T08:59:56.388Z,10.85
2018-11-14T09:03:59.863Z,10.89
2018-11-14T09:08:03.831Z,10.89
2018-11-14T09:12:07.669Z,10.98
2018-11-14T09:16:11.155Z,11.00
2018-11-14T09:20:15.891Z,11.11
2018-11-14T09:24:19.423Z,11.14
2018-11-14T09:28:22.951Z,11.22
2018-11-14T09:32:26.380Z,11.28
2018-11-14T09:36:29.852Z,11.30
2018-11-14T09:40:33.266Z,11.37
2018-11-14T09:44:37.243Z,11.38
2018-11-14T09:48:40.587Z,11.44
2018-11-14T09:52:45.319Z,11.52
2018-11-14T09:56:48.903Z,11.50
2018-11-14T10:00:52.379Z,11.53
2018-11-14T10:04:55.848Z,11.54
2018-11-14T10:08:59.393Z,11.56
2018-11-14T10:13:03.696Z,11.60
2018-11-14T10:17:07.432Z,11.61
2018-11-14T10:21:11.043Z,11.64
2018-11-14T10:25:15.295Z,11.72
2018-11-14T10:29:19.753Z,11.78
2018-11-14T10:33:23.530Z,11.79
2018-11-14T10:37:27.674Z,11.83
2018-11-14T10:41:31.997Z,11.82
2018-11-14T10:45:35.470Z,11.82
2018-11-14T10:49:38.954Z,11.84
2018-11-14T10:53:42.475Z,11.86
2018-11-14T10:57:45.994Z,11.85
2018-11-14T11:01:54.728Z,11.88
2018-11-14T11:06:03.773Z,11.93
2018-11-14T11:10:12.419Z,12.02
2018-11-14T11:14:21.081Z,12.08
2018-11-14T11:18:25.966Z,12.12
2018-11-14T11:22:29.497Z,12.21
2018-11-14T11:26:32.925Z,12.21
2018-11-14T11:30:36.792Z,12.22
2018-11-14T11:34:40.226Z,12.23
2018-11-14T11:38:43.738Z,12.24
2018-11-14T11:42:47.271Z,12.29
2018-11-14T11:46:50.785Z,12.31
2018-11-14T11:50:54.418Z,12.35
2018-11-14T11:54:57.932Z,12.42
2018-11-14T11:59:02.036Z,12.49
2018-11-14T12:03:05.601Z,12.55
2018-11-14T12:07:09.061Z,12.54
2018-11-14T12:11:12.548Z,12.51
2018-11-14T12:15:16.061Z,12.44
2018-11-14T12:19:19.568Z,12.48
2018-11-14T12:23:22.998Z,12.51
2018-11-14T12:27:26.491Z,12.47
2018-11-14T12:31:29.995Z,12.49
2018-11-14T12:35:33.515Z,12.50
2018-11-14T12:39:37.088Z,12.52
2018-11-14T12:43:40.591Z,12.56
2018-11-14T12:47:44.116Z,12.63
2018-11-14T12:51:47.606Z,12.71
2018-11-14T12:55:51.109Z,12.70
2018-11-14T12:59:54.758Z,12.70
2018-11-14T13:03:58.373Z,12.73
2018-11-14T13:08:01.857Z,12.74
2018-11-14T13:12:05.565Z,12.82
2018-11-14T13:16:09.232Z,12.87
2018-11-14T13:20:16.809Z,12.87
2018-11-14T13:24:20.297Z,12.90
2018-11-14T13:28:23.810Z,12.93
2018-11-14T13:32:27.313Z,12.91
2018-11-14T13:36:31.210Z,12.89
2018-11-14T13:40:34.853Z,12.87
2018-11-14T13:44:38.702Z,12.81
2018-11-14T13:48:42.284Z,12.80
2018-11-14T13:52:45.907Z,12.77
2018-11-14T13:56:49.418Z,12.75
2018-11-14T14:00:53.824Z,12.74
2018-11-14T14:04:57.342Z,12.74
2018-11-14T14:09:00.836Z,12.75
2018-11-14T14:13:05.104Z,12.74
2018-11-14T14:17:08.639Z,12.72
2018-11-14T14:21:12.232Z,12.73
2018-11-14T14:25:16.826Z,12.72
2018-11-14T14:29:20.645Z,12.73
2018-11-14T14:33:24.180Z,12.71
2018-11-14T14:37:27.709Z,12.70
2018-11-14T14:41:31.176Z,12.72
2018-11-14T14:45:35.318Z,12.69
2018-11-14T14:49:38.813Z,12.70
2018-11-14T14:53:42.261Z,12.68
2018-11-14T14:57:46.436Z,12.67
2018-11-14T15:01:49.907Z,12.61
2018-11-14T15:05:53.493Z,12.56
2018-11-14T15:09:57.034Z,12.54
2018-11-14T15:14:00.534Z,12.51
2018-11-14T15:18:04.113Z,12.53
2018-11-14T15:22:07.638Z,12.53
2018-11-14T15:26:11.218Z,12.52
2018-11-14T15:30:18.517Z,12.47
2018-11-14T15:34:22.081Z,12.41
2018-11-14T15:38:25.716Z,12.36
2018-11-14T15:42:29.426Z,12.30
2018-11-14T15:46:33.015Z,12.24
2018-11-14T15:50:36.625Z,12.16
2018-11-14T15:54:40.189Z,12.10
2018-11-14T15:58:43.847Z,12.03
2018-11-14T16:02:47.352Z,11.96
2018-11-14T16:06:51.109Z,11.91
2018-11-14T16:10:54.985Z,11.87
2018-11-14T16:14:58.543Z,11.80
2018-11-14T16:19:02.103Z,11.69
2018-11-14T16:23:05.762Z,11.58
2018-11-14T16:27:09.199Z,11.52
2018-11-14T16:31:12.790Z,11.41
2018-11-14T16:35:16.298Z,11.35
2018-11-14T16:39:19.856Z,11.31
2018-11-14T16:43:23.365Z,11.29
2018-11-14T16:47:27.030Z,11.25
2018-11-14T16:51:30.538Z,11.19
2018-11-14T16:55:34.372Z,11.11
2018-11-14T16:59:37.859Z,11.02
2018-11-14T17:03:41.441Z,10.95
2018-11-14T17:07:44.828Z,10.84
2018-11-14T17:11:48.342Z,10.74
2018-11-14T17:15:51.835Z,10.66
2018-11-14T17:19:55.313Z,10.62
2018-11-14T17:23:58.830Z,10.60
2018-11-14T17:28:02.333Z,10.55
2018-11-14T17:32:06.049Z,10.54
2018-11-14T17:36:09.899Z,10.49
2018-11-14T17:40:15.477Z,10.39
2018-11-14T17:44:18.990Z,10.33
2018-11-14T17:48:22.540Z,10.28
2018-11-14T17:56:28.523Z,10.21
2018-11-14T18:00:33.133Z,10.14
2018-11-14T18:04:36.590Z,10.07
2018-11-14T18:08:40.329Z,10.00
2018-11-14T18:12:44.641Z,9.93
2018-11-14T18:16:48.306Z,9.88
2018-11-14T18:20:51.803Z,9.82
2018-11-14T18:24:55.824Z,9.72
2018-11-14T18:28:59.413Z,9.65
2018-11-14T18:33:03.456Z,9.62
2018-11-14T18:37:06.961Z,9.62
2018-11-14T18:41:10.478Z,9.60
2018-11-14T18:45:26.798Z,9.55
2018-11-14T18:49:30.215Z,9.50
2018-11-14T18:53:33.675Z,9.48
2018-11-14T18:57:37.278Z,9.42
2018-11-14T19:01:40.710Z,9.39
2018-11-14T19:05:44.206Z,9.37
2018-11-14T19:09:47.786Z,9.27
2018-11-14T19:13:52.938Z,9.15
2018-11-14T19:17:56.825Z,9.05
2018-11-14T19:22:00.298Z,9.01
2018-11-14T19:26:03.794Z,8.97
2018-11-14T19:30:09.613Z,8.90
2018-11-14T19:34:13.212Z,8.85
2018-11-14T19:38:16.723Z,8.84
2018-11-14T19:42:20.224Z,8.77
2018-11-14T19:46:23.717Z,8.71
2018-11-14T19:50:27.418Z,8.67
2018-11-14T19:54:30.947Z,8.62
2018-11-14T19:58:34.385Z,8.61
2018-11-14T20:02:37.859Z,8.60
2018-11-14T20:06:41.573Z,8.58
2018-11-14T20:10:45.052Z,8.56
2018-11-14T20:14:48.541Z,8.52
2018-11-14T20:18:52.051Z,8.48
2018-11-14T20:22:55.530Z,8.43
2018-11-14T20:26:59.084Z,8.39
2018-11-14T20:31:02.550Z,8.34
2018-11-14T20:35:06.819Z,8.30
2018-11-14T20:39:11.793Z,8.27
2018-11-14T20:43:15.273Z,8.26
2018-11-14T20:47:18.738Z,8.23
2018-11-14T20:51:22.215Z,8.19
2018-11-14T20:55:25.821Z,8.10
2018-11-14T20:59:29.357Z,8.01
2018-11-14T21:03:32.818Z,7.92
2018-11-14T21:07:36.359Z,7.85
2018-11-14T21:11:39.818Z,7.79
2018-11-14T21:15:43.440Z,7.72
2018-11-14T21:19:46.863Z,7.70
2018-11-14T21:23:50.324Z,7.67
2018-11-14T21:27:54.345Z,7.65
2018-11-14T21:31:57.844Z,7.57
2018-11-14T21:36:01.285Z,7.47
2018-11-14T21:40:06.096Z,7.41
2018-11-14T21:44:09.537Z,7.37
2018-11-14T21:48:14.301Z,7.31
2018-11-14T21:52:18.113Z,7.25
2018-11-14T21:56:21.891Z,7.19
2018-11-14T22:00:30.619Z,7.15
2018-11-14T22:04:34.086Z,7.10
2018-11-14T22:08:37.542Z,7.05
2018-11-14T22:12:41.548Z,7.04
2018-11-14T22:16:45.078Z,7.02
2018-11-14T22:20:48.601Z,7.01
2018-11-14T22:24:52.082Z,7.00
2018-11-14T22:28:55.543Z,7.03
2018-11-14T22:33:00.126Z,7.02
2018-11-14T22:37:03.724Z,7.04
2018-11-14T22:41:07.191Z,7.03
2018-11-14T22:45:12.994Z,7.00
2018-11-14T22:49:16.426Z,6.97
2018-11-14T22:53:19.885Z,6.93
2018-11-14T22:57:23.352Z,6.90
2018-11-14T23:01:26.826Z,6.89
2018-11-14T23:05:30.399Z,6.86
2018-11-14T23:09:33.875Z,6.82
2018-11-14T23:13:37.376Z,6.79
2018-11-14T23:17:40.811Z,6.81
2018-11-14T23:21:44.341Z,6.79
2018-11-14T23:25:47.841Z,6.79
2018-11-14T23:29:51.303Z,6.79
2018-11-14T23:33:54.788Z,6.79
2018-11-14T23:38:02.526Z,6.79
2018-11-14T23:42:06.058Z,6.78
2018-11-14T23:46:09.590Z,6.72
2018-11-14T23:50:15.555Z,6.68
2018-11-14T23:54:19.206Z,6.64
2018-11-14T23:58:22.703Z,6.59
